Wetterstation Vordersexau
Wetterdaten: Woche 10.12.12 - 16.12.12 (KW50)
Datum Zeit Temp. A. Feuchte A. Luftdruck Regen Wind Richtung Taupunkt Windchill Windben
10.12.2012 00:00 1,9 C 84 % 1012,8 hPa 0,0 l/m 25,3 km/h W-SW -0,5 C -9,2 C 14,0 km/h
10.12.2012 01:00 1,5 C 85 % 1012,4 hPa 0,0 l/m 21,4 km/h W-SW -0,7 C -8,3 C 11,9 km/h
10.12.2012 02:00 1,6 C 86 % 1011,8 hPa 0,0 l/m 24,6 km/h W -0,5 C -9,4 C 13,7 km/h
10.12.2012 03:00 1,9 C 86 % 1011,1 hPa 0,0 l/m 17,5 km/h W -0,2 C -6,0 C 9,7 km/h
10.12.2012 04:00 1,6 C 86 % 1010,9 hPa 0,0 l/m 24,6 km/h W-SW -0,5 C -9,4 C 13,7 km/h
10.12.2012 05:00 1,6 C 87 % 1010,6 hPa 0,0 l/m 6,5 km/h W -0,3 C 1,5 C 3,6 km/h
10.12.2012 06:00 1,1 C 86 % 1010,6 hPa 0,0 l/m 1,9 km/h W-SW -1,0 C 1,1 C 1,1 km/h
10.12.2012 07:00 1,6 C 85 % 1010,7 hPa 0,4 l/m 21,4 km/h W -0,6 C -8,2 C 11,9 km/h
10.12.2012 08:00 1,8 C 86 % 1010,4 hPa 0,0 l/m 5,2 km/h W -0,3 C 1,8 C 2,9 km/h
10.12.2012 09:00 2,1 C 87 % 1010,5 hPa 0,0 l/m 3,2 km/h W 0,2 C 2,1 C 1,8 km/h
10.12.2012 10:00 2,6 C 85 % 1010,1 hPa 0,0 l/m 16,8 km/h W-NW 0,3 C -4,8 C 9,4 km/h
10.12.2012 11:00 2,5 C 85 % 1010,3 hPa 0,0 l/m 24,0 km/h NW 0,2 C -8,0 C 13,3 km/h
10.12.2012 12:00 1,9 C 87 % 1010,8 hPa 0,0 l/m 0,0 km/h W -0,0 C 1,9 C 0,0 km/h
10.12.2012 13:00 2,2 C 86 % 1011,0 hPa 0,0 l/m 2,6 km/h W 0,1 C 2,2 C 1,4 km/h
10.12.2012 14:00 2,8 C 86 % 1010,8 hPa 0,0 l/m 9,1 km/h W-NW 0,7 C 0,4 C 5,0 km/h
10.12.2012 15:00 2,5 C 87 % 1011,5 hPa 0,0 l/m 20,7 km/h SW 0,6 C -6,7 C 11,5 km/h
10.12.2012 16:00 1,6 C 86 % 1011,7 hPa 0,4 l/m 0,0 km/h SW -0,5 C 1,6 C 0,0 km/h
10.12.2012 17:00 1,7 C 85 % 1012,2 hPa 0,0 l/m 5,2 km/h W -0,5 C 1,7 C 2,9 km/h
10.12.2012 18:00 1,8 C 86 % 1012,7 hPa 0,0 l/m 0,0 km/h W-NW -0,3 C 1,8 C 0,0 km/h
10.12.2012 19:00 1,4 C 85 % 1013,2 hPa 0,0 l/m 1,3 km/h W -0,8 C 1,4 C 0,7 km/h
10.12.2012 20:00 1,1 C 84 % 1013,8 hPa 0,0 l/m 0,0 km/h W -1,3 C 1,1 C 0,0 km/h
10.12.2012 21:00 1,3 C 84 % 1014,0 hPa 0,0 l/m 0,0 km/h W-NW -1,1 C 1,3 C 0,0 km/h
10.12.2012 22:00 1,3 C 83 % 1014,1 hPa 0,4 l/m 5,2 km/h N-NO -1,3 C 1,3 C 2,9 km/h
10.12.2012 23:00 1,1 C 83 % 1014,4 hPa 0,0 l/m 0,0 km/h N -1,5 C 1,1 C 0,0 km/h
11.12.2012 00:00 0,3 C 84 % 1015,4 hPa 0,0 l/m 1,9 km/h O-NO -2,1 C 0,3 C 1,1 km/h
11.12.2012 01:00 0,3 C 87 % 1015,9 hPa 0,0 l/m 1,9 km/h N-NO -1,6 C 0,3 C 1,1 km/h
11.12.2012 02:00 -0,2 C 87 % 1016,9 hPa 0,0 l/m 0,0 km/h N-NO -2,1 C -0,2 C 0,0 km/h
11.12.2012 03:00 -0,1 C 86 % 1016,8 hPa 0,0 l/m 0,0 km/h NO -2,2 C -0,1 C 0,0 km/h
11.12.2012 04:00 -0,4 C 85 % 1017,1 hPa 0,0 l/m 0,0 km/h NO -2,6 C -0,4 C 0,0 km/h
11.12.2012 05:00 -1,1 C 86 % 1017,4 hPa 0,0 l/m 0,0 km/h NO -3,1 C -1,1 C 0,0 km/h
11.12.2012 06:00 -1,4 C 86 % 1017,9 hPa 0,0 l/m 0,0 km/h NO -3,4 C -1,4 C 0,0 km/h
11.12.2012 07:00 -1,1 C 86 % 1018,6 hPa 0,0 l/m 0,0 km/h W -3,1 C -1,1 C 0,0 km/h
11.12.2012 08:00 -1,4 C 87 % 1019,2 hPa 0,0 l/m 0,0 km/h W -3,3 C -1,4 C 0,0 km/h
11.12.2012 09:00 -1,3 C 87 % 1019,5 hPa 0,0 l/m 0,0 km/h W -3,2 C -1,3 C 0,0 km/h
11.12.2012 10:00 -0,8 C 87 % 1020,3 hPa 0,0 l/m 0,0 km/h W -2,7 C -0,8 C 0,0 km/h
11.12.2012 11:00 -0,4 C 87 % 1020,6 hPa 0,0 l/m 0,0 km/h W -2,3 C -0,4 C 0,0 km/h
11.12.2012 12:00 -0,3 C 87 % 1020,6 hPa 0,0 l/m 0,0 km/h W -2,2 C -0,3 C 0,0 km/h
11.12.2012 13:00 0,2 C 87 % 1021,0 hPa 0,0 l/m 0,0 km/h W -1,7 C 0,2 C 0,0 km/h
11.12.2012 14:00 -0,2 C 87 % 1021,2 hPa 0,0 l/m 0,0 km/h NW -2,1 C -0,2 C 0,0 km/h
11.12.2012 15:00 -0,4 C 87 % 1021,7 hPa 0,0 l/m 0,0 km/h W -2,3 C -0,4 C 0,0 km/h
11.12.2012 16:00 -0,7 C 87 % 1021,9 hPa 0,0 l/m 0,0 km/h NW -2,6 C -0,7 C 0,0 km/h
11.12.2012 17:00 -1,1 C 86 % 1022,3 hPa 0,0 l/m 0,0 km/h NW -3,1 C -1,1 C 0,0 km/h
11.12.2012 18:00 -1,8 C 86 % 1022,6 hPa 0,0 l/m 0,0 km/h NW -3,8 C -1,8 C 0,0 km/h
11.12.2012 19:00 -2,2 C 86 % 1022,8 hPa 0,0 l/m 0,0 km/h SW -4,2 C -2,2 C 0,0 km/h
11.12.2012 20:00 -3,9 C 87 % 1023,2 hPa 0,0 l/m 0,0 km/h SW -5,7 C -3,9 C 0,0 km/h
11.12.2012 21:00 -4,4 C 87 % 1023,4 hPa 0,0 l/m 0,0 km/h SW -6,2 C -4,4 C 0,0 km/h
11.12.2012 22:00 -4,4 C 87 % 1023,5 hPa 0,0 l/m 0,0 km/h O -6,2 C -4,4 C 0,0 km/h
11.12.2012 23:00 -6,5 C 87 % 1023,7 hPa 0,0 l/m 0,0 km/h O -8,3 C -6,5 C 0,0 km/h
12.12.2012 00:00 -4,3 C 86 % 1023,5 hPa 0,0 l/m 0,0 km/h O -6,3 C -4,3 C 0,0 km/h
12.12.2012 01:00 -6,6 C 87 % 1023,3 hPa 0,0 l/m 0,0 km/h O -8,4 C -6,6 C 0,0 km/h
12.12.2012 02:00 -7,4 C 88 % 1023,3 hPa 0,0 l/m 0,0 km/h O -9,0 C -7,4 C 0,0 km/h
12.12.2012 03:00 -7,4 C 88 % 1023,5 hPa 0,0 l/m 0,0 km/h O -9,0 C -7,4 C 0,0 km/h
12.12.2012 04:00 -7,4 C 88 % 1023,3 hPa 0,0 l/m 0,0 km/h O -9,0 C -7,4 C 0,0 km/h
12.12.2012 05:00 -10,7 C 88 % 1023,2 hPa 0,0 l/m 0,0 km/h O -12,3 C -10,7 C 0,0 km/h
12.12.2012 06:00 -10,7 C 88 % 1022,5 hPa 0,0 l/m 0,0 km/h O -12,3 C -10,7 C 0,0 km/h
12.12.2012 07:00 -10,4 C 88 % 1022,5 hPa 0,0 l/m 0,0 km/h O -12,0 C -10,4 C 0,0 km/h
12.12.2012 08:00 -9,7 C 88 % 1022,1 hPa 0,0 l/m 0,0 km/h O -11,3 C -9,7 C 0,0 km/h
12.12.2012 09:00 -5,6 C 86 % 1022,2 hPa 0,0 l/m 0,0 km/h O -7,6 C -5,6 C 0,0 km/h
12.12.2012 10:00 -1,1 C 87 % 1022,3 hPa 0,0 l/m 0,0 km/h SO -3,0 C -1,1 C 0,0 km/h
12.12.2012 11:00 -1,1 C 83 % 1022,0 hPa 0,0 l/m 0,0 km/h S-SO -3,6 C -1,1 C 0,0 km/h
12.12.2012 12:00 1,3 C 73 % 1020,9 hPa 0,0 l/m 0,0 km/h N-NW -3,0 C 1,3 C 0,0 km/h
12.12.2012 13:00 2,2 C 68 % 1020,4 hPa 0,4 l/m 0,0 km/h NW -3,1 C 2,2 C 0,0 km/h
12.12.2012 14:00 2,3 C 66 % 1019,7 hPa 0,0 l/m 0,0 km/h NW -3,4 C 2,3 C 0,0 km/h
12.12.2012 15:00 3,9 C 63 % 1018,9 hPa 0,4 l/m 0,0 km/h NW -2,5 C 3,9 C 0,0 km/h
12.12.2012 16:00 -2,7 C 74 % 1018,3 hPa 0,0 l/m 0,0 km/h NW -6,7 C -2,7 C 0,0 km/h
12.12.2012 17:00 -6,2 C 82 % 1018,2 hPa 0,0 l/m 0,0 km/h NW -8,8 C -6,2 C 0,0 km/h
12.12.2012 18:00 -7,4 C 85 % 1017,9 hPa 0,0 l/m 0,0 km/h NW -9,5 C -7,4 C 0,0 km/h
12.12.2012 19:00 -8,2 C 85 % 1017,6 hPa 0,0 l/m 0,0 km/h NW -10,3 C -8,2 C 0,0 km/h
12.12.2012 20:00 -8,4 C 86 % 1017,1 hPa 0,0 l/m 0,0 km/h NW -10,3 C -8,4 C 0,0 km/h
12.12.2012 21:00 -8,4 C 86 % 1016,8 hPa 0,0 l/m 0,0 km/h NW -10,3 C -8,4 C 0,0 km/h
12.12.2012 22:00 -9,1 C 87 % 1016,3 hPa 0,0 l/m 0,0 km/h NW -10,9 C -9,1 C 0,0 km/h
12.12.2012 23:00 -9,6 C 87 % 1015,9 hPa 0,0 l/m 0,0 km/h NW -11,3 C -9,6 C 0,0 km/h
13.12.2012 00:00 -9,6 C 87 % 1015,4 hPa 0,0 l/m 0,0 km/h NW -11,3 C -9,6 C 0,0 km/h
13.12.2012 01:00 -9,1 C 87 % 1014,7 hPa 0,0 l/m 0,0 km/h NW -10,9 C -9,1 C 0,0 km/h
13.12.2012 02:00 -9,0 C 87 % 1014,0 hPa 0,0 l/m 0,0 km/h NW -10,8 C -9,0 C 0,0 km/h
13.12.2012 03:00 -9,2 C 87 % 1013,9 hPa 0,0 l/m 0,0 km/h NW -11,0 C -9,2 C 0,0 km/h
13.12.2012 04:00 -9,9 C 87 % 1013,0 hPa 0,0 l/m 0,0 km/h NW -11,6 C -9,9 C 0,0 km/h
13.12.2012 05:00 -9,9 C 87 % 1012,4 hPa 0,0 l/m 0,0 km/h NW -11,6 C -9,9 C 0,0 km/h
13.12.2012 06:00 -8,7 C 88 % 1011,9 hPa 0,0 l/m 0,0 km/h NW -10,3 C -8,7 C 0,0 km/h
13.12.2012 07:00 -8,6 C 88 % 1011,7 hPa 0,0 l/m 0,0 km/h NW -10,2 C -8,6 C 0,0 km/h
13.12.2012 08:00 -8,4 C 88 % 1011,2 hPa 0,0 l/m 0,0 km/h NW -10,0 C -8,4 C 0,0 km/h
13.12.2012 09:00 -6,9 C 87 % 1011,2 hPa 0,0 l/m 0,0 km/h NW -8,7 C -6,9 C 0,0 km/h
13.12.2012 10:00 -3,1 C 87 % 1011,4 hPa 0,0 l/m 0,0 km/h NW -4,9 C -3,1 C 0,0 km/h
13.12.2012 11:00 -0,1 C 86 % 1011,1 hPa 0,0 l/m 0,0 km/h NW -2,2 C -0,1 C 0,0 km/h
13.12.2012 12:00 1,8 C 78 % 1010,2 hPa 0,0 l/m 0,0 km/h NW -1,6 C 1,8 C 0,0 km/h
13.12.2012 13:00 0,9 C 76 % 1009,7 hPa 0,0 l/m 0,0 km/h NW -2,8 C 0,9 C 0,0 km/h
13.12.2012 14:00 0,3 C 79 % 1009,0 hPa 0,0 l/m 0,0 km/h NW -2,9 C 0,3 C 0,0 km/h
13.12.2012 15:00 -0,4 C 82 % 1008,8 hPa 0,4 l/m 0,0 km/h NW -3,1 C -0,4 C 0,0 km/h
13.12.2012 16:00 -0,5 C 84 % 1008,4 hPa 0,0 l/m 0,0 km/h NW -2,9 C -0,5 C 0,0 km/h
13.12.2012 17:00 -0,5 C 85 % 1008,1 hPa 0,0 l/m 0,0 km/h N-NO -2,7 C -0,5 C 0,0 km/h
13.12.2012 18:00 -0,2 C 86 % 1007,9 hPa 0,0 l/m 0,0 km/h N-NO -2,3 C -0,2 C 0,0 km/h
13.12.2012 19:00 -0,1 C 87 % 1007,6 hPa 0,0 l/m 0,0 km/h N-NO -2,0 C -0,1 C 0,0 km/h
13.12.2012 20:00 -0,1 C 87 % 1007,7 hPa 0,0 l/m 0,0 km/h NO -2,0 C -0,1 C 0,0 km/h
13.12.2012 21:00 -0,1 C 87 % 1007,7 hPa 0,0 l/m 0,0 km/h NO -2,0 C -0,1 C 0,0 km/h
13.12.2012 22:00 -0,1 C 87 % 1007,9 hPa 0,0 l/m 0,0 km/h O-SO -2,0 C -0,1 C 0,0 km/h
13.12.2012 23:00 -0,1 C 87 % 1007,4 hPa 0,0 l/m 0,0 km/h O-SO -2,0 C -0,1 C 0,0 km/h
14.12.2012 00:00 0,2 C 87 % 1007,1 hPa 0,0 l/m 0,0 km/h O-SO -1,7 C 0,2 C 0,0 km/h
14.12.2012 01:00 0,6 C 86 % 1006,6 hPa 0,0 l/m 0,0 km/h N-NW -1,5 C 0,6 C 0,0 km/h
14.12.2012 02:00 0,4 C 85 % 1006,8 hPa 0,0 l/m 0,0 km/h NO -1,8 C 0,4 C 0,0 km/h
14.12.2012 03:00 0,6 C 85 % 1006,6 hPa 0,0 l/m 0,0 km/h NO -1,6 C 0,6 C 0,0 km/h
14.12.2012 04:00 0,4 C 84 % 1005,9 hPa 0,0 l/m 0,0 km/h SO -2,0 C 0,4 C 0,0 km/h
14.12.2012 05:00 0,5 C 84 % 1005,9 hPa 0,0 l/m 0,0 km/h O-SO -1,9 C 0,5 C 0,0 km/h
14.12.2012 06:00 0,7 C 83 % 1005,4 hPa 0,0 l/m 0,0 km/h NO -1,8 C 0,7 C 0,0 km/h
14.12.2012 07:00 0,9 C 82 % 1004,6 hPa 0,0 l/m 0,0 km/h W-NW -1,8 C 0,9 C 0,0 km/h
14.12.2012 08:00 0,7 C 82 % 1004,9 hPa 0,0 l/m 0,0 km/h N-NW -2,0 C 0,7 C 0,0 km/h
14.12.2012 09:00 1,3 C 80 % 1003,9 hPa 0,0 l/m 0,0 km/h NW -1,8 C 1,3 C 0,0 km/h
14.12.2012 10:00 1,8 C 79 % 1003,8 hPa 0,0 l/m 0,0 km/h NW -1,4 C 1,8 C 0,0 km/h
14.12.2012 11:00 2,1 C 80 % 1003,4 hPa 0,0 l/m 0,0 km/h NW -1,0 C 2,1 C 0,0 km/h
14.12.2012 12:00 2,9 C 81 % 1002,8 hPa 0,0 l/m 0,0 km/h NW -0,0 C 2,9 C 0,0 km/h
14.12.2012 13:00 4,2 C 84 % 1001,4 hPa 0,0 l/m 0,0 km/h NW 1,7 C 4,2 C 0,0 km/h
14.12.2012 14:00 4,1 C 86 % 1000,3 hPa 0,4 l/m 0,0 km/h O-NO 2,0 C 4,1 C 0,0 km/h
14.12.2012 15:00 3,2 C 87 % 999,6 hPa 0,4 l/m 0,0 km/h O-SO 1,2 C 3,2 C 0,0 km/h
14.12.2012 16:00 3,5 C 85 % 998,9 hPa 0,0 l/m 0,0 km/h N-NO 1,2 C 3,5 C 0,0 km/h
14.12.2012 17:00 3,1 C 85 % 999,5 hPa 0,0 l/m 0,0 km/h O-SO 0,8 C 3,1 C 0,0 km/h
14.12.2012 18:00 4,1 C 83 % 998,3 hPa 0,0 l/m 0,0 km/h NO 1,5 C 4,1 C 0,0 km/h
14.12.2012 19:00 6,4 C 83 % 998,0 hPa 0,0 l/m 7,8 km/h O-NO 3,7 C 5,2 C 4,3 km/h
14.12.2012 20:00 5,5 C 86 % 997,9 hPa 0,0 l/m 0,0 km/h SW 3,3 C 5,5 C 0,0 km/h
14.12.2012 21:00 10,0 C 81 % 997,6 hPa 0,0 l/m 7,8 km/h W 6,9 C 9,0 C 4,3 km/h
14.12.2012 22:00 9,8 C 82 % 998,0 hPa 0,0 l/m 2,6 km/h SW 6,9 C 9,8 C 1,4 km/h
14.12.2012 23:00 9,1 C 84 % 998,6 hPa 0,0 l/m 1,3 km/h W-SW 6,5 C 9,1 C 0,7 km/h
15.12.2012 00:00 8,8 C 85 % 998,4 hPa 0,4 l/m 0,0 km/h O-NO 6,4 C 8,8 C 0,0 km/h
15.12.2012 01:00 6,7 C 86 % 998,6 hPa 0,4 l/m 0,0 km/h NO 4,5 C 6,7 C 0,0 km/h
15.12.2012 02:00 6,5 C 84 % 998,8 hPa 0,4 l/m 0,0 km/h SO 4,0 C 6,5 C 0,0 km/h
15.12.2012 03:00 6,7 C 82 % 999,3 hPa 0,4 l/m 0,0 km/h W-SW 3,8 C 6,7 C 0,0 km/h
15.12.2012 04:00 7,8 C 80 % 1000,0 hPa 0,7 l/m 2,6 km/h W-NW 4,6 C 7,8 C 1,4 km/h
15.12.2012 05:00 7,6 C 79 % 1001,0 hPa 1,1 l/m 7,8 km/h S 4,2 C 6,5 C 4,3 km/h
15.12.2012 06:00 7,5 C 84 % 1001,1 hPa 0,7 l/m 18,8 km/h S 5,0 C 0,5 C 10,4 km/h
15.12.2012 07:00 8,1 C 86 % 1001,6 hPa 0,4 l/m 24,6 km/h W 5,9 C -0,6 C 13,7 km/h
15.12.2012 08:00 8,6 C 86 % 1002,4 hPa 0,0 l/m 3,2 km/h W-SW 6,4 C 8,6 C 1,8 km/h
15.12.2012 09:00 9,4 C 84 % 1003,1 hPa 0,0 l/m 17,5 km/h W 6,8 C 3,4 C 9,7 km/h
15.12.2012 10:00 9,4 C 81 % 1003,7 hPa 0,0 l/m 21,4 km/h SW 6,3 C 2,1 C 11,9 km/h
15.12.2012 11:00 9,3 C 82 % 1004,1 hPa 0,0 l/m 7,8 km/h W-SW 6,4 C 8,3 C 4,3 km/h
15.12.2012 12:00 10,1 C 78 % 1004,6 hPa 0,0 l/m 24,0 km/h SW 6,4 C 2,2 C 13,3 km/h
15.12.2012 13:00 10,4 C 77 % 1004,5 hPa 0,0 l/m 35,0 km/h SW 6,5 C 0,3 C 19,4 km/h
15.12.2012 14:00 10,2 C 76 % 1005,0 hPa 0,0 l/m 16,8 km/h S 6,2 C 4,7 C 9,4 km/h
15.12.2012 15:00 8,2 C 83 % 1005,3 hPa 0,0 l/m 2,6 km/h SW 5,5 C 8,2 C 1,4 km/h
15.12.2012 16:00 7,8 C 86 % 1006,4 hPa 0,4 l/m 25,9 km/h S-SW 5,6 C -1,4 C 14,4 km/h
15.12.2012 17:00 7,5 C 85 % 1006,9 hPa 0,0 l/m 8,4 km/h S 5,1 C 5,9 C 4,7 km/h
15.12.2012 18:00 8,5 C 84 % 1006,6 hPa 0,0 l/m 4,5 km/h S-SW 6,0 C 8,5 C 2,5 km/h
15.12.2012 19:00 8,6 C 84 % 1007,0 hPa 0,0 l/m 2,6 km/h W-NW 6,1 C 8,6 C 1,4 km/h
15.12.2012 20:00 9,3 C 80 % 1006,9 hPa 0,0 l/m 21,4 km/h W 6,0 C 1,9 C 11,9 km/h
15.12.2012 21:00 9,8 C 76 % 1006,8 hPa 0,0 l/m 3,2 km/h W-SW 5,8 C 9,8 C 1,8 km/h
15.12.2012 22:00 9,9 C 73 % 1006,7 hPa 0,0 l/m 2,6 km/h SW 5,3 C 9,9 C 1,4 km/h
15.12.2012 23:00 9,8 C 74 % 1006,8 hPa 0,0 l/m 32,4 km/h W 5,4 C -0,1 C 18,0 km/h
16.12.2012 00:00 8,1 C 83 % 1007,5 hPa 0,4 l/m 24,0 km/h W 5,4 C -0,5 C 13,3 km/h
16.12.2012 01:00 7,1 C 86 % 1007,9 hPa 1,4 l/m 5,2 km/h S-SW 4,9 C 7,1 C 2,9 km/h
16.12.2012 02:00 7,3 C 86 % 1008,0 hPa 0,4 l/m 6,5 km/h W-SW 5,1 C 7,2 C 3,6 km/h
16.12.2012 03:00 8,4 C 84 % 1008,6 hPa 0,0 l/m 24,0 km/h W-SW 5,9 C -0,1 C 13,3 km/h
16.12.2012 04:00 8,8 C 81 % 1008,4 hPa 0,0 l/m 23,3 km/h NW 5,7 C 0,7 C 13,0 km/h
16.12.2012 05:00 8,7 C 81 % 1008,6 hPa 0,0 l/m 24,0 km/h W 5,6 C 0,4 C 13,3 km/h
16.12.2012 06:00 8,6 C 80 % 1008,8 hPa 0,0 l/m 10,4 km/h SW 5,3 C 5,8 C 5,8 km/h
16.12.2012 07:00 8,6 C 80 % 1008,8 hPa 0,0 l/m 29,8 km/h W 5,3 C -1,3 C 16,6 km/h
16.12.2012 08:00 8,5 C 80 % 1008,7 hPa 0,0 l/m 11,0 km/h S-SW 5,3 C 5,3 C 6,1 km/h
16.12.2012 09:00 7,8 C 82 % 1009,2 hPa 0,0 l/m 24,0 km/h S 4,9 C -0,9 C 13,3 km/h
16.12.2012 10:00 7,9 C 85 % 1009,3 hPa 0,4 l/m 6,5 km/h SW 5,5 C 7,8 C 3,6 km/h
16.12.2012 11:00 9,6 C 80 % 1009,6 hPa 0,0 l/m 24,0 km/h W-SW 6,3 C 1,6 C 13,3 km/h
16.12.2012 12:00 8,7 C 81 % 1009,0 hPa 0,0 l/m 25,9 km/h SW 5,6 C -0,2 C 14,4 km/h
16.12.2012 13:00 8,2 C 85 % 1009,2 hPa 0,4 l/m 3,9 km/h W 5,8 C 8,2 C 2,2 km/h
16.12.2012 14:00 9,3 C 80 % 1008,4 hPa 0,0 l/m 16,8 km/h W-SW 6,0 C 3,5 C 9,4 km/h
16.12.2012 15:00 9,9 C 77 % 1008,1 hPa 0,0 l/m 11,0 km/h W 6,1 C 6,9 C 6,1 km/h
16.12.2012 16:00 8,9 C 80 % 1007,9 hPa 0,0 l/m 1,9 km/h W-NW 5,6 C 8,9 C 1,1 km/h
16.12.2012 17:00 8,6 C 80 % 1008,3 hPa 0,0 l/m 10,4 km/h W-NW 5,3 C 5,8 C 5,8 km/h
16.12.2012 18:00 7,9 C 82 % 1008,3 hPa 0,0 l/m 17,5 km/h W 5,0 C 1,5 C 9,7 km/h
16.12.2012 19:00 8,5 C 79 % 1007,8 hPa 0,0 l/m 18,8 km/h S 5,1 C 1,8 C 10,4 km/h
16.12.2012 20:00 8,8 C 78 % 1007,3 hPa 0,0 l/m 1,9 km/h W 5,2 C 8,8 C 1,1 km/h
16.12.2012 21:00 8,7 C 77 % 1007,1 hPa 0,0 l/m 20,7 km/h W 4,9 C 1,4 C 11,5 km/h
16.12.2012 22:00 6,6 C 86 % 1007,2 hPa 0,7 l/m 7,8 km/h S-SW 4,4 C 5,4 C 4,3 km/h
16.12.2012 23:00 6,1 C 85 % 1006,7 hPa 1,1 l/m 13,0 km/h W 3,8 C 1,5 C 7,2 km/h
Min-Datum _ 12.12.12 12.12.12 14.12.12 - 10.12.12 - 12.12.12 12.12.12 10.12.12
_ Min-Zeit 05:19 15:19 21:19 - 12:19 - 05:19 05:19 12:19
Minimum _ -10,7 C 63 % 997,6 hPa - 0,0 km/h - -12,3 C -10,7 C 0,0 km/h
Max-Datum _ 15.12.12 12.12.12 11.12.12 16.12.12 15.12.12 - 14.12.12 15.12.12 15.12.12
_ Max-Zeit 13:19 02:19 23:19 01:19 13:19 - 21:19 22:19 13:19
Maximum _ 10,4 C 88 % 1023,7 hPa 1,4 l/m 35,0 km/h
SW
- 6,9 C 9,9 C 19,4 km/h
SW
Durchschnitt _ 1,6 C 84 % 1011,0 hPa #12,1 l/m 5,4 km/h NW -0,9 C -0,1 C 3,0 km/h
www.sexauwetter.de